sensor_id;sensor_type;location;lat;lon;timestamp;P1;durP1;ratioP1;P2;durP2;ratioP2
13483;SDS011;6814;57.786;12.080;2023-07-30T00:02:14;22.30;;;17.70;;
13483;SDS011;6814;57.786;12.080;2023-07-30T00:04:41;22.80;;;17.53;;
13483;SDS011;6814;57.786;12.080;2023-07-30T00:07:09;25.13;;;17.57;;
13483;SDS011;6814;57.786;12.080;2023-07-30T00:09:35;21.50;;;16.53;;
13483;SDS011;6814;57.786;12.080;2023-07-30T00:12:02;23.73;;;18.30;;
13483;SDS011;6814;57.786;12.080;2023-07-30T00:14:28;24.57;;;17.57;;
13483;SDS011;6814;57.786;12.080;2023-07-30T00:16:55;23.73;;;17.50;;
13483;SDS011;6814;57.786;12.080;2023-07-30T00:19:21;21.87;;;17.40;;
13483;SDS011;6814;57.786;12.080;2023-07-30T00:21:48;18.70;;;16.30;;
13483;SDS011;6814;57.786;12.080;2023-07-30T00:24:16;24.57;;;17.63;;
13483;SDS011;6814;57.786;12.080;2023-07-30T00:26:42;23.73;;;18.17;;
13483;SDS011;6814;57.786;12.080;2023-07-30T00:29:08;27.70;;;18.40;;
13483;SDS011;6814;57.786;12.080;2023-07-30T00:31:35;27.40;;;18.60;;
13483;SDS011;6814;57.786;12.080;2023-07-30T00:34:01;25.03;;;18.20;;
13483;SDS011;6814;57.786;12.080;2023-07-30T00:36:28;26.67;;;18.50;;
13483;SDS011;6814;57.786;12.080;2023-07-30T00:38:54;28.57;;;18.50;;
13483;SDS011;6814;57.786;12.080;2023-07-30T00:41:22;24.97;;;17.87;;
13483;SDS011;6814;57.786;12.080;2023-07-30T00:43:48;29.93;;;20.27;;
13483;SDS011;6814;57.786;12.080;2023-07-30T00:46:15;25.47;;;18.67;;
13483;SDS011;6814;57.786;12.080;2023-07-30T00:48:42;29.10;;;18.83;;
13483;SDS011;6814;57.786;12.080;2023-07-30T00:51:09;26.40;;;18.93;;
13483;SDS011;6814;57.786;12.080;2023-07-30T00:53:37;27.87;;;19.47;;
13483;SDS011;6814;57.786;12.080;2023-07-30T00:56:03;20.87;;;16.07;;
13483;SDS011;6814;57.786;12.080;2023-07-30T00:58:31;21.47;;;15.40;;
13483;SDS011;6814;57.786;12.080;2023-07-30T01:00:58;15.23;;;13.63;;
13483;SDS011;6814;57.786;12.080;2023-07-30T01:03:25;16.90;;;13.10;;
13483;SDS011;6814;57.786;12.080;2023-07-30T01:05:51;14.53;;;12.50;;
13483;SDS011;6814;57.786;12.080;2023-07-30T01:08:18;17.93;;;12.93;;
13483;SDS011;6814;57.786;12.080;2023-07-30T01:10:44;15.93;;;12.60;;
13483;SDS011;6814;57.786;12.080;2023-07-30T01:13:11;14.37;;;10.73;;
13483;SDS011;6814;57.786;12.080;2023-07-30T01:15:39;13.43;;;10.60;;
13483;SDS011;6814;57.786;12.080;2023-07-30T01:18:06;15.77;;;11.30;;
13483;SDS011;6814;57.786;12.080;2023-07-30T01:20:33;16.43;;;11.60;;
13483;SDS011;6814;57.786;12.080;2023-07-30T01:23:00;19.47;;;12.23;;
13483;SDS011;6814;57.786;12.080;2023-07-30T01:25:27;19.77;;;12.03;;
13483;SDS011;6814;57.786;12.080;2023-07-30T01:27:55;18.40;;;11.77;;
13483;SDS011;6814;57.786;12.080;2023-07-30T01:30:25;20.47;;;11.93;;
13483;SDS011;6814;57.786;12.080;2023-07-30T01:32:52;17.23;;;10.13;;
13483;SDS011;6814;57.786;12.080;2023-07-30T01:35:19;21.30;;;11.27;;
13483;SDS011;6814;57.786;12.080;2023-07-30T01:37:46;20.77;;;10.80;;
13483;SDS011;6814;57.786;12.080;2023-07-30T01:40:14;16.43;;;11.17;;
13483;SDS011;6814;57.786;12.080;2023-07-30T01:42:41;21.57;;;11.27;;
13483;SDS011;6814;57.786;12.080;2023-07-30T01:45:08;15.57;;;10.50;;
13483;SDS011;6814;57.786;12.080;2023-07-30T01:47:34;18.67;;;11.20;;
13483;SDS011;6814;57.786;12.080;2023-07-30T01:50:01;19.23;;;10.60;;
13483;SDS011;6814;57.786;12.080;2023-07-30T01:52:28;16.43;;;8.80;;
13483;SDS011;6814;57.786;12.080;2023-07-30T01:54:54;19.80;;;9.77;;
13483;SDS011;6814;57.786;12.080;2023-07-30T01:57:25;23.17;;;9.63;;
13483;SDS011;6814;57.786;12.080;2023-07-30T01:59:51;17.73;;;9.83;;
13483;SDS011;6814;57.786;12.080;2023-07-30T02:02:17;11.03;;;8.13;;
13483;SDS011;6814;57.786;12.080;2023-07-30T02:04:44;11.60;;;8.43;;
13483;SDS011;6814;57.786;12.080;2023-07-30T02:07:10;13.93;;;8.93;;
13483;SDS011;6814;57.786;12.080;2023-07-30T02:09:36;13.10;;;9.47;;
13483;SDS011;6814;57.786;12.080;2023-07-30T02:12:03;13.60;;;9.17;;
13483;SDS011;6814;57.786;12.080;2023-07-30T02:14:31;14.83;;;9.23;;
13483;SDS011;6814;57.786;12.080;2023-07-30T02:16:58;11.30;;;9.47;;
13483;SDS011;6814;57.786;12.080;2023-07-30T02:19:24;13.53;;;9.73;;
13483;SDS011;6814;57.786;12.080;2023-07-30T02:21:50;14.73;;;9.63;;
13483;SDS011;6814;57.786;12.080;2023-07-30T02:24:17;16.07;;;9.70;;
13483;SDS011;6814;57.786;12.080;2023-07-30T02:26:43;18.63;;;10.30;;
13483;SDS011;6814;57.786;12.080;2023-07-30T02:29:10;18.53;;;10.70;;
13483;SDS011;6814;57.786;12.080;2023-07-30T02:31:38;15.37;;;9.53;;
13483;SDS011;6814;57.786;12.080;2023-07-30T02:34:04;13.13;;;9.93;;
13483;SDS011;6814;57.786;12.080;2023-07-30T02:36:32;12.37;;;9.60;;
13483;SDS011;6814;57.786;12.080;2023-07-30T02:38:58;15.43;;;10.33;;
13483;SDS011;6814;57.786;12.080;2023-07-30T02:41:24;14.93;;;10.37;;
13483;SDS011;6814;57.786;12.080;2023-07-30T02:43:51;15.90;;;9.00;;
13483;SDS011;6814;57.786;12.080;2023-07-30T02:46:17;13.50;;;10.07;;
13483;SDS011;6814;57.786;12.080;2023-07-30T02:48:45;18.97;;;10.47;;
13483;SDS011;6814;57.786;12.080;2023-07-30T02:51:11;11.70;;;9.47;;
13483;SDS011;6814;57.786;12.080;2023-07-30T02:53:38;14.07;;;10.53;;
13483;SDS011;6814;57.786;12.080;2023-07-30T02:56:04;17.00;;;10.37;;
13483;SDS011;6814;57.786;12.080;2023-07-30T02:58:31;14.20;;;9.60;;
13483;SDS011;6814;57.786;12.080;2023-07-30T03:01:04;11.83;;;9.60;;
13483;SDS011;6814;57.786;12.080;2023-07-30T03:03:30;11.07;;;8.47;;
13483;SDS011;6814;57.786;12.080;2023-07-30T03:05:58;12.87;;;9.43;;
13483;SDS011;6814;57.786;12.080;2023-07-30T03:08:25;9.67;;;8.20;;
13483;SDS011;6814;57.786;12.080;2023-07-30T03:10:51;12.47;;;8.90;;
13483;SDS011;6814;57.786;12.080;2023-07-30T03:13:18;13.43;;;8.93;;
13483;SDS011;6814;57.786;12.080;2023-07-30T03:15:44;11.67;;;8.80;;
13483;SDS011;6814;57.786;12.080;2023-07-30T03:18:11;10.53;;;8.57;;
13483;SDS011;6814;57.786;12.080;2023-07-30T03:20:38;10.90;;;8.37;;
13483;SDS011;6814;57.786;12.080;2023-07-30T03:23:05;11.87;;;8.53;;
13483;SDS011;6814;57.786;12.080;2023-07-30T03:25:32;14.17;;;8.17;;
13483;SDS011;6814;57.786;12.080;2023-07-30T03:27:58;13.77;;;8.27;;
13483;SDS011;6814;57.786;12.080;2023-07-30T03:30:25;9.90;;;8.70;;
13483;SDS011;6814;57.786;12.080;2023-07-30T03:32:51;16.03;;;8.73;;
13483;SDS011;6814;57.786;12.080;2023-07-30T03:35:18;10.30;;;8.77;;
13483;SDS011;6814;57.786;12.080;2023-07-30T03:37:44;10.97;;;8.00;;
13483;SDS011;6814;57.786;12.080;2023-07-30T03:40:12;14.47;;;8.10;;
13483;SDS011;6814;57.786;12.080;2023-07-30T03:42:39;14.70;;;8.13;;
13483;SDS011;6814;57.786;12.080;2023-07-30T03:45:05;14.00;;;8.40;;
13483;SDS011;6814;57.786;12.080;2023-07-30T03:47:32;12.07;;;9.03;;
13483;SDS011;6814;57.786;12.080;2023-07-30T03:49:59;12.10;;;8.10;;
13483;SDS011;6814;57.786;12.080;2023-07-30T03:52:25;10.17;;;8.00;;
13483;SDS011;6814;57.786;12.080;2023-07-30T03:54:51;10.73;;;7.73;;
13483;SDS011;6814;57.786;12.080;2023-07-30T03:57:19;13.30;;;8.13;;
13483;SDS011;6814;57.786;12.080;2023-07-30T03:59:46;14.63;;;8.20;;
13483;SDS011;6814;57.786;12.080;2023-07-30T04:02:12;13.10;;;7.90;;
13483;SDS011;6814;57.786;12.080;2023-07-30T04:04:40;14.60;;;7.10;;
13483;SDS011;6814;57.786;12.080;2023-07-30T04:07:07;13.43;;;7.23;;
13483;SDS011;6814;57.786;12.080;2023-07-30T04:09:33;12.70;;;6.87;;
13483;SDS011;6814;57.786;12.080;2023-07-30T04:12:00;9.13;;;6.40;;
13483;SDS011;6814;57.786;12.080;2023-07-30T04:14:28;10.00;;;6.57;;
13483;SDS011;6814;57.786;12.080;2023-07-30T04:16:54;8.63;;;6.00;;
13483;SDS011;6814;57.786;12.080;2023-07-30T04:19:20;10.83;;;6.97;;
13483;SDS011;6814;57.786;12.080;2023-07-30T04:21:47;10.73;;;6.10;;
13483;SDS011;6814;57.786;12.080;2023-07-30T04:24:13;10.03;;;6.77;;
13483;SDS011;6814;57.786;12.080;2023-07-30T04:26:40;12.37;;;6.87;;
13483;SDS011;6814;57.786;12.080;2023-07-30T04:29:06;9.73;;;7.20;;
13483;SDS011;6814;57.786;12.080;2023-07-30T04:31:34;12.03;;;6.63;;
13483;SDS011;6814;57.786;12.080;2023-07-30T04:34:00;9.13;;;7.27;;
13483;SDS011;6814;57.786;12.080;2023-07-30T04:36:27;11.27;;;6.77;;
13483;SDS011;6814;57.786;12.080;2023-07-30T04:38:53;14.17;;;6.53;;
13483;SDS011;6814;57.786;12.080;2023-07-30T04:41:20;9.17;;;6.77;;
13483;SDS011;6814;57.786;12.080;2023-07-30T04:43:46;11.43;;;6.90;;
13483;SDS011;6814;57.786;12.080;2023-07-30T04:46:12;12.17;;;7.13;;
13483;SDS011;6814;57.786;12.080;2023-07-30T04:48:40;12.30;;;7.43;;
13483;SDS011;6814;57.786;12.080;2023-07-30T04:51:07;10.87;;;7.20;;
13483;SDS011;6814;57.786;12.080;2023-07-30T04:53:33;14.70;;;7.97;;
13483;SDS011;6814;57.786;12.080;2023-07-30T04:55:59;10.17;;;7.60;;
13483;SDS011;6814;57.786;12.080;2023-07-30T04:58:26;11.23;;;7.20;;
13483;SDS011;6814;57.786;12.080;2023-07-30T05:00:52;9.00;;;6.57;;
13483;SDS011;6814;57.786;12.080;2023-07-30T05:03:18;8.67;;;6.30;;
13483;SDS011;6814;57.786;12.080;2023-07-30T05:05:46;11.33;;;7.50;;
13483;SDS011;6814;57.786;12.080;2023-07-30T05:08:13;9.07;;;6.87;;
13483;SDS011;6814;57.786;12.080;2023-07-30T05:10:39;13.30;;;7.60;;
13483;SDS011;6814;57.786;12.080;2023-07-30T05:13:06;8.67;;;7.13;;
13483;SDS011;6814;57.786;12.080;2023-07-30T05:15:34;10.57;;;6.77;;
13483;SDS011;6814;57.786;12.080;2023-07-30T05:18:00;10.23;;;7.40;;
13483;SDS011;6814;57.786;12.080;2023-07-30T05:20:26;12.13;;;7.00;;
13483;SDS011;6814;57.786;12.080;2023-07-30T05:22:54;8.73;;;6.37;;
13483;SDS011;6814;57.786;12.080;2023-07-30T05:25:21;10.00;;;6.70;;
13483;SDS011;6814;57.786;12.080;2023-07-30T05:27:48;7.77;;;6.40;;
13483;SDS011;6814;57.786;12.080;2023-07-30T05:30:14;9.77;;;6.03;;
13483;SDS011;6814;57.786;12.080;2023-07-30T05:32:40;8.03;;;5.90;;
13483;SDS011;6814;57.786;12.080;2023-07-30T05:35:07;6.40;;;5.27;;
13483;SDS011;6814;57.786;12.080;2023-07-30T05:37:33;10.20;;;5.40;;
13483;SDS011;6814;57.786;12.080;2023-07-30T05:40:01;6.37;;;4.73;;
13483;SDS011;6814;57.786;12.080;2023-07-30T05:42:28;10.03;;;4.90;;
13483;SDS011;6814;57.786;12.080;2023-07-30T05:44:55;7.87;;;4.60;;
13483;SDS011;6814;57.786;12.080;2023-07-30T05:47:21;5.07;;;4.20;;
13483;SDS011;6814;57.786;12.080;2023-07-30T05:49:47;8.43;;;4.33;;
13483;SDS011;6814;57.786;12.080;2023-07-30T05:52:14;8.50;;;4.70;;
13483;SDS011;6814;57.786;12.080;2023-07-30T05:54:40;7.47;;;4.37;;
13483;SDS011;6814;57.786;12.080;2023-07-30T05:57:08;5.00;;;4.50;;
13483;SDS011;6814;57.786;12.080;2023-07-30T05:59:34;6.53;;;4.57;;
13483;SDS011;6814;57.786;12.080;2023-07-30T06:02:01;6.10;;;5.00;;
13483;SDS011;6814;57.786;12.080;2023-07-30T06:04:28;8.33;;;5.00;;
13483;SDS011;6814;57.786;12.080;2023-07-30T06:06:54;7.90;;;4.73;;
13483;SDS011;6814;57.786;12.080;2023-07-30T06:09:21;7.43;;;5.00;;
13483;SDS011;6814;57.786;12.080;2023-07-30T06:11:47;5.23;;;4.73;;
13483;SDS011;6814;57.786;12.080;2023-07-30T06:14:15;7.77;;;5.20;;
13483;SDS011;6814;57.786;12.080;2023-07-30T06:16:41;8.63;;;5.70;;
13483;SDS011;6814;57.786;12.080;2023-07-30T06:19:08;10.10;;;5.43;;
13483;SDS011;6814;57.786;12.080;2023-07-30T06:21:35;8.40;;;5.50;;
13483;SDS011;6814;57.786;12.080;2023-07-30T06:24:01;9.87;;;5.83;;
13483;SDS011;6814;57.786;12.080;2023-07-30T06:26:27;7.17;;;5.60;;
13483;SDS011;6814;57.786;12.080;2023-07-30T06:28:54;12.33;;;6.17;;
13483;SDS011;6814;57.786;12.080;2023-07-30T06:31:21;10.07;;;5.37;;
13483;SDS011;6814;57.786;12.080;2023-07-30T06:33:48;6.17;;;4.70;;
13483;SDS011;6814;57.786;12.080;2023-07-30T06:36:14;10.07;;;5.77;;
13483;SDS011;6814;57.786;12.080;2023-07-30T06:38:41;8.83;;;5.00;;
13483;SDS011;6814;57.786;12.080;2023-07-30T06:41:07;6.63;;;5.07;;
13483;SDS011;6814;57.786;12.080;2023-07-30T06:43:34;7.23;;;4.83;;
13483;SDS011;6814;57.786;12.080;2023-07-30T06:46:00;7.27;;;4.50;;
13483;SDS011;6814;57.786;12.080;2023-07-30T06:48:28;5.90;;;4.60;;
13483;SDS011;6814;57.786;12.080;2023-07-30T06:50:54;5.37;;;4.00;;
13483;SDS011;6814;57.786;12.080;2023-07-30T06:53:21;4.20;;;3.17;;
13483;SDS011;6814;57.786;12.080;2023-07-30T06:55:47;6.53;;;3.17;;
13483;SDS011;6814;57.786;12.080;2023-07-30T06:58:14;5.83;;;3.47;;
13483;SDS011;6814;57.786;12.080;2023-07-30T07:00:40;5.97;;;2.60;;
13483;SDS011;6814;57.786;12.080;2023-07-30T07:03:06;4.90;;;2.80;;
13483;SDS011;6814;57.786;12.080;2023-07-30T07:05:35;4.53;;;2.80;;
13483;SDS011;6814;57.786;12.080;2023-07-30T07:08:01;9.20;;;3.30;;
13483;SDS011;6814;57.786;12.080;2023-07-30T07:10:28;8.10;;;3.20;;
13483;SDS011;6814;57.786;12.080;2023-07-30T07:12:54;5.20;;;2.87;;
13483;SDS011;6814;57.786;12.080;2023-07-30T07:15:21;6.37;;;3.27;;
13483;SDS011;6814;57.786;12.080;2023-07-30T07:17:47;6.33;;;3.50;;
13483;SDS011;6814;57.786;12.080;2023-07-30T07:20:13;5.27;;;3.23;;
13483;SDS011;6814;57.786;12.080;2023-07-30T07:22:41;5.10;;;3.10;;
13483;SDS011;6814;57.786;12.080;2023-07-30T07:25:08;5.17;;;3.50;;
13483;SDS011;6814;57.786;12.080;2023-07-30T07:27:35;5.90;;;3.10;;
13483;SDS011;6814;57.786;12.080;2023-07-30T07:30:01;5.70;;;3.50;;
13483;SDS011;6814;57.786;12.080;2023-07-30T07:32:28;4.70;;;3.83;;
13483;SDS011;6814;57.786;12.080;2023-07-30T07:34:54;7.50;;;3.80;;
13483;SDS011;6814;57.786;12.080;2023-07-30T07:37:20;6.50;;;3.77;;
13483;SDS011;6814;57.786;12.080;2023-07-30T07:39:48;7.27;;;4.00;;
13483;SDS011;6814;57.786;12.080;2023-07-30T07:42:15;7.20;;;3.83;;
13483;SDS011;6814;57.786;12.080;2023-07-30T07:44:41;6.67;;;3.77;;
13483;SDS011;6814;57.786;12.080;2023-07-30T07:47:11;5.77;;;4.07;;
13483;SDS011;6814;57.786;12.080;2023-07-30T07:49:37;9.83;;;4.10;;
13483;SDS011;6814;57.786;12.080;2023-07-30T07:52:03;8.67;;;3.40;;
13483;SDS011;6814;57.786;12.080;2023-07-30T07:54:30;3.23;;;2.83;;
13483;SDS011;6814;57.786;12.080;2023-07-30T07:56:58;7.07;;;3.23;;
13483;SDS011;6814;57.786;12.080;2023-07-30T07:59:24;3.27;;;2.97;;
13483;SDS011;6814;57.786;12.080;2023-07-30T08:01:52;5.80;;;3.47;;
13483;SDS011;6814;57.786;12.080;2023-07-30T08:04:19;6.03;;;3.43;;
13483;SDS011;6814;57.786;12.080;2023-07-30T08:06:46;5.77;;;3.00;;
13483;SDS011;6814;57.786;12.080;2023-07-30T08:09:12;6.53;;;3.80;;
13483;SDS011;6814;57.786;12.080;2023-07-30T08:11:39;4.27;;;3.53;;
13483;SDS011;6814;57.786;12.080;2023-07-30T08:14:07;7.20;;;3.70;;
13483;SDS011;6814;57.786;12.080;2023-07-30T08:16:33;6.03;;;3.20;;
13483;SDS011;6814;57.786;12.080;2023-07-30T08:18:59;5.00;;;3.00;;
13483;SDS011;6814;57.786;12.080;2023-07-30T08:21:26;6.03;;;2.80;;
13483;SDS011;6814;57.786;12.080;2023-07-30T08:23:52;5.83;;;3.00;;
13483;SDS011;6814;57.786;12.080;2023-07-30T08:26:19;4.63;;;2.80;;
13483;SDS011;6814;57.786;12.080;2023-07-30T08:28:45;4.67;;;2.50;;
13483;SDS011;6814;57.786;12.080;2023-07-30T08:31:13;5.27;;;2.80;;
13483;SDS011;6814;57.786;12.080;2023-07-30T08:33:39;6.47;;;2.87;;
13483;SDS011;6814;57.786;12.080;2023-07-30T08:36:06;6.00;;;2.80;;
13483;SDS011;6814;57.786;12.080;2023-07-30T08:38:32;5.50;;;2.50;;
13483;SDS011;6814;57.786;12.080;2023-07-30T08:40:58;4.43;;;2.60;;
13483;SDS011;6814;57.786;12.080;2023-07-30T08:43:25;5.23;;;2.33;;
13483;SDS011;6814;57.786;12.080;2023-07-30T08:45:51;4.47;;;2.50;;
13483;SDS011;6814;57.786;12.080;2023-07-30T08:48:19;4.43;;;2.30;;
13483;SDS011;6814;57.786;12.080;2023-07-30T08:50:45;4.70;;;2.47;;
13483;SDS011;6814;57.786;12.080;2023-07-30T08:53:13;3.50;;;2.47;;
13483;SDS011;6814;57.786;12.080;2023-07-30T08:55:40;4.47;;;2.20;;
13483;SDS011;6814;57.786;12.080;2023-07-30T08:58:06;5.10;;;2.37;;
13483;SDS011;6814;57.786;12.080;2023-07-30T09:00:34;3.83;;;2.67;;
13483;SDS011;6814;57.786;12.080;2023-07-30T09:03:01;4.30;;;2.73;;
13483;SDS011;6814;57.786;12.080;2023-07-30T09:05:30;3.90;;;2.50;;
13483;SDS011;6814;57.786;12.080;2023-07-30T09:07:57;5.53;;;2.63;;
13483;SDS011;6814;57.786;12.080;2023-07-30T09:10:23;4.20;;;2.63;;
13483;SDS011;6814;57.786;12.080;2023-07-30T09:12:52;5.67;;;2.90;;
13483;SDS011;6814;57.786;12.080;2023-07-30T09:15:18;8.03;;;3.20;;
13483;SDS011;6814;57.786;12.080;2023-07-30T09:17:45;5.43;;;2.67;;
13483;SDS011;6814;57.786;12.080;2023-07-30T09:20:12;5.20;;;2.83;;
13483;SDS011;6814;57.786;12.080;2023-07-30T09:22:40;7.30;;;2.73;;
13483;SDS011;6814;57.786;12.080;2023-07-30T09:25:08;6.63;;;2.67;;
13483;SDS011;6814;57.786;12.080;2023-07-30T09:27:36;7.33;;;2.73;;
13483;SDS011;6814;57.786;12.080;2023-07-30T09:30:03;4.00;;;2.50;;
13483;SDS011;6814;57.786;12.080;2023-07-30T09:32:31;3.37;;;2.50;;
13483;SDS011;6814;57.786;12.080;2023-07-30T09:35:03;5.00;;;2.23;;
13483;SDS011;6814;57.786;12.080;2023-07-30T09:37:30;6.60;;;2.47;;
13483;SDS011;6814;57.786;12.080;2023-07-30T09:39:58;4.97;;;2.10;;
13483;SDS011;6814;57.786;12.080;2023-07-30T09:42:26;3.93;;;2.10;;
13483;SDS011;6814;57.786;12.080;2023-07-30T09:44:52;2.03;;;1.67;;
13483;SDS011;6814;57.786;12.080;2023-07-30T09:47:19;3.57;;;1.80;;
13483;SDS011;6814;57.786;12.080;2023-07-30T09:49:45;3.43;;;1.73;;
13483;SDS011;6814;57.786;12.080;2023-07-30T09:52:12;3.23;;;2.03;;
13483;SDS011;6814;57.786;12.080;2023-07-30T09:54:39;4.77;;;2.80;;
13483;SDS011;6814;57.786;12.080;2023-07-30T09:57:08;4.67;;;2.17;;
13483;SDS011;6814;57.786;12.080;2023-07-30T09:59:34;3.73;;;2.00;;
13483;SDS011;6814;57.786;12.080;2023-07-30T10:02:00;6.03;;;2.33;;
13483;SDS011;6814;57.786;12.080;2023-07-30T10:04:27;5.77;;;2.17;;
13483;SDS011;6814;57.786;12.080;2023-07-30T10:06:55;6.13;;;2.73;;
13483;SDS011;6814;57.786;12.080;2023-07-30T10:09:23;4.90;;;2.20;;
13483;SDS011;6814;57.786;12.080;2023-07-30T10:11:51;6.47;;;2.20;;
13483;SDS011;6814;57.786;12.080;2023-07-30T10:14:21;3.70;;;1.50;;
13483;SDS011;6814;57.786;12.080;2023-07-30T10:16:54;5.27;;;2.40;;
13483;SDS011;6814;57.786;12.080;2023-07-30T10:19:24;3.27;;;1.67;;
13483;SDS011;6814;57.786;12.080;2023-07-30T10:21:53;3.73;;;1.70;;
13483;SDS011;6814;57.786;12.080;2023-07-30T10:24:19;2.97;;;1.93;;
13483;SDS011;6814;57.786;12.080;2023-07-30T10:26:46;4.70;;;2.03;;
13483;SDS011;6814;57.786;12.080;2023-07-30T10:29:13;3.80;;;1.97;;
13483;SDS011;6814;57.786;12.080;2023-07-30T10:31:41;4.57;;;2.00;;
13483;SDS011;6814;57.786;12.080;2023-07-30T10:34:08;4.40;;;2.17;;
13483;SDS011;6814;57.786;12.080;2023-07-30T10:36:41;4.30;;;2.10;;
13483;SDS011;6814;57.786;12.080;2023-07-30T10:39:11;4.37;;;2.10;;
13483;SDS011;6814;57.786;12.080;2023-07-30T10:41:38;5.83;;;2.20;;
13483;SDS011;6814;57.786;12.080;2023-07-30T10:44:04;4.07;;;2.27;;
13483;SDS011;6814;57.786;12.080;2023-07-30T10:46:31;4.83;;;2.17;;
13483;SDS011;6814;57.786;12.080;2023-07-30T10:48:59;5.13;;;2.27;;
13483;SDS011;6814;57.786;12.080;2023-07-30T10:51:26;2.93;;;1.90;;
13483;SDS011;6814;57.786;12.080;2023-07-30T10:53:53;4.20;;;2.03;;
13483;SDS011;6814;57.786;12.080;2023-07-30T10:56:21;5.23;;;1.90;;
13483;SDS011;6814;57.786;12.080;2023-07-30T10:58:49;4.00;;;2.00;;
13483;SDS011;6814;57.786;12.080;2023-07-30T11:01:15;4.67;;;1.83;;
13483;SDS011;6814;57.786;12.080;2023-07-30T11:03:42;4.30;;;1.80;;
13483;SDS011;6814;57.786;12.080;2023-07-30T11:06:10;4.07;;;1.83;;
13483;SDS011;6814;57.786;12.080;2023-07-30T11:08:38;6.47;;;2.83;;
13483;SDS011;6814;57.786;12.080;2023-07-30T11:11:18;3.23;;;1.50;;
13483;SDS011;6814;57.786;12.080;2023-07-30T11:13:45;5.27;;;2.33;;
13483;SDS011;6814;57.786;12.080;2023-07-30T11:16:12;4.30;;;1.40;;
13483;SDS011;6814;57.786;12.080;2023-07-30T11:18:44;4.80;;;1.50;;
13483;SDS011;6814;57.786;12.080;2023-07-30T11:21:14;7.80;;;2.23;;
13483;SDS011;6814;57.786;12.080;2023-07-30T11:23:41;5.23;;;1.90;;
13483;SDS011;6814;57.786;12.080;2023-07-30T11:26:08;5.70;;;1.90;;
13483;SDS011;6814;57.786;12.080;2023-07-30T11:28:35;4.53;;;1.73;;
13483;SDS011;6814;57.786;12.080;2023-07-30T11:31:02;6.07;;;2.10;;
13483;SDS011;6814;57.786;12.080;2023-07-30T11:33:29;2.57;;;1.40;;
13483;SDS011;6814;57.786;12.080;2023-07-30T11:35:56;3.60;;;1.80;;
13483;SDS011;6814;57.786;12.080;2023-07-30T11:38:24;4.70;;;2.03;;
13483;SDS011;6814;57.786;12.080;2023-07-30T11:40:51;6.73;;;1.90;;
13483;SDS011;6814;57.786;12.080;2023-07-30T11:43:18;5.17;;;2.30;;
13483;SDS011;6814;57.786;12.080;2023-07-30T11:45:44;6.57;;;1.90;;
13483;SDS011;6814;57.786;12.080;2023-07-30T11:48:11;3.80;;;1.70;;
13483;SDS011;6814;57.786;12.080;2023-07-30T11:50:44;3.50;;;1.37;;
13483;SDS011;6814;57.786;12.080;2023-07-30T11:53:11;5.53;;;1.70;;
13483;SDS011;6814;57.786;12.080;2023-07-30T11:55:39;3.30;;;1.93;;
13483;SDS011;6814;57.786;12.080;2023-07-30T11:58:05;3.83;;;2.00;;
13483;SDS011;6814;57.786;12.080;2023-07-30T12:00:32;5.27;;;1.97;;
13483;SDS011;6814;57.786;12.080;2023-07-30T12:02:59;4.53;;;1.83;;
13483;SDS011;6814;57.786;12.080;2023-07-30T12:05:31;3.13;;;1.53;;
13483;SDS011;6814;57.786;12.080;2023-07-30T12:07:57;4.00;;;1.60;;
13483;SDS011;6814;57.786;12.080;2023-07-30T12:10:27;3.63;;;1.80;;
13483;SDS011;6814;57.786;12.080;2023-07-30T12:12:55;4.27;;;1.90;;
13483;SDS011;6814;57.786;12.080;2023-07-30T12:15:21;3.53;;;1.40;;
13483;SDS011;6814;57.786;12.080;2023-07-30T12:17:48;3.63;;;1.83;;
13483;SDS011;6814;57.786;12.080;2023-07-30T12:20:15;2.63;;;1.57;;
13483;SDS011;6814;57.786;12.080;2023-07-30T12:22:41;3.60;;;2.00;;
13483;SDS011;6814;57.786;12.080;2023-07-30T12:25:09;7.23;;;2.50;;
13483;SDS011;6814;57.786;12.080;2023-07-30T12:27:35;3.67;;;1.80;;
13483;SDS011;6814;57.786;12.080;2023-07-30T12:30:03;5.70;;;2.33;;
13483;SDS011;6814;57.786;12.080;2023-07-30T12:32:30;4.20;;;1.53;;
13483;SDS011;6814;57.786;12.080;2023-07-30T12:34:56;2.27;;;1.83;;
13483;SDS011;6814;57.786;12.080;2023-07-30T12:37:23;5.60;;;2.13;;
13483;SDS011;6814;57.786;12.080;2023-07-30T12:39:49;5.03;;;1.93;;
13483;SDS011;6814;57.786;12.080;2023-07-30T12:42:16;6.60;;;1.90;;
13483;SDS011;6814;57.786;12.080;2023-07-30T12:44:42;4.57;;;2.10;;
13483;SDS011;6814;57.786;12.080;2023-07-30T12:47:10;5.47;;;2.20;;
13483;SDS011;6814;57.786;12.080;2023-07-30T12:49:36;5.53;;;1.87;;
13483;SDS011;6814;57.786;12.080;2023-07-30T12:52:03;4.33;;;1.90;;
13483;SDS011;6814;57.786;12.080;2023-07-30T12:54:29;5.17;;;2.37;;
13483;SDS011;6814;57.786;12.080;2023-07-30T12:56:56;4.13;;;2.10;;
13483;SDS011;6814;57.786;12.080;2023-07-30T12:59:22;4.57;;;2.07;;
13483;SDS011;6814;57.786;12.080;2023-07-30T13:01:49;5.07;;;1.60;;
13483;SDS011;6814;57.786;12.080;2023-07-30T13:04:17;6.60;;;2.20;;
13483;SDS011;6814;57.786;12.080;2023-07-30T13:06:43;4.07;;;1.90;;
13483;SDS011;6814;57.786;12.080;2023-07-30T13:09:10;4.27;;;1.97;;
13483;SDS011;6814;57.786;12.080;2023-07-30T13:11:36;5.77;;;1.73;;
13483;SDS011;6814;57.786;12.080;2023-07-30T13:14:03;2.57;;;1.87;;
13483;SDS011;6814;57.786;12.080;2023-07-30T13:16:29;6.43;;;2.10;;
13483;SDS011;6814;57.786;12.080;2023-07-30T13:18:57;3.30;;;1.80;;
13483;SDS011;6814;57.786;12.080;2023-07-30T13:21:25;5.37;;;2.00;;
13483;SDS011;6814;57.786;12.080;2023-07-30T13:23:51;3.37;;;1.67;;
13483;SDS011;6814;57.786;12.080;2023-07-30T13:26:18;5.00;;;1.87;;
13483;SDS011;6814;57.786;12.080;2023-07-30T13:28:44;3.10;;;1.73;;
13483;SDS011;6814;57.786;12.080;2023-07-30T13:31:11;3.27;;;1.87;;
13483;SDS011;6814;57.786;12.080;2023-07-30T13:33:37;2.53;;;1.97;;
13483;SDS011;6814;57.786;12.080;2023-07-30T13:36:04;6.30;;;2.17;;
13483;SDS011;6814;57.786;12.080;2023-07-30T13:38:32;5.13;;;1.70;;
13483;SDS011;6814;57.786;12.080;2023-07-30T13:40:59;7.10;;;1.80;;
13483;SDS011;6814;57.786;12.080;2023-07-30T13:43:25;4.47;;;1.67;;
13483;SDS011;6814;57.786;12.080;2023-07-30T13:45:52;3.57;;;1.60;;
13483;SDS011;6814;57.786;12.080;2023-07-30T13:48:19;5.10;;;2.00;;
13483;SDS011;6814;57.786;12.080;2023-07-30T13:50:45;5.60;;;2.07;;
13483;SDS011;6814;57.786;12.080;2023-07-30T13:53:12;2.30;;;1.53;;
13483;SDS011;6814;57.786;12.080;2023-07-30T13:55:41;2.70;;;1.70;;
13483;SDS011;6814;57.786;12.080;2023-07-30T13:58:12;5.07;;;2.20;;
13483;SDS011;6814;57.786;12.080;2023-07-30T14:00:40;4.47;;;1.93;;
13483;SDS011;6814;57.786;12.080;2023-07-30T14:03:07;4.07;;;1.77;;
13483;SDS011;6814;57.786;12.080;2023-07-30T14:05:33;4.80;;;1.77;;
13483;SDS011;6814;57.786;12.080;2023-07-30T14:07:59;2.53;;;1.50;;
13483;SDS011;6814;57.786;12.080;2023-07-30T14:10:26;3.60;;;1.90;;
13483;SDS011;6814;57.786;12.080;2023-07-30T14:12:54;3.90;;;1.60;;
13483;SDS011;6814;57.786;12.080;2023-07-30T14:15:20;3.90;;;1.83;;
13483;SDS011;6814;57.786;12.080;2023-07-30T14:17:47;3.27;;;1.50;;
13483;SDS011;6814;57.786;12.080;2023-07-30T14:20:15;3.70;;;1.30;;
13483;SDS011;6814;57.786;12.080;2023-07-30T14:22:42;3.07;;;1.60;;
13483;SDS011;6814;57.786;12.080;2023-07-30T14:25:08;2.83;;;1.37;;
13483;SDS011;6814;57.786;12.080;2023-07-30T14:27:35;3.47;;;1.50;;
13483;SDS011;6814;57.786;12.080;2023-07-30T14:30:03;3.30;;;1.53;;
13483;SDS011;6814;57.786;12.080;2023-07-30T14:32:30;2.25;;;1.50;;
13483;SDS011;6814;57.786;12.080;2023-07-30T14:34:56;4.22;;;1.80;;
13483;SDS011;6814;57.786;12.080;2023-07-30T14:37:22;2.60;;;1.50;;
13483;SDS011;6814;57.786;12.080;2023-07-30T14:39:49;4.00;;;1.63;;